Time;durP1;ratioP1;P1;durP2;ratioP2;P2;SDS_P1;SDS_P2;PMS_P1;PMS_P2;Temp;Humidity;BMP_temperature;BMP_pressure;BME280_temperature;BME280_humidity;BME280_pressure;Samples;Min_cycle;Max_cycle;Signal;HPM_P1;HPM_P2
2023/09/20 00:00:29;;;;;;;;;;;16.80;99.90;;;;;;4929057;29;19933;-86
2023/09/20 00:02:55;;;;;;;;;;;16.80;99.90;;;;;;4948325;28;19927;-86
2023/09/20 00:05:21;;;;;;;;;;;16.90;99.90;;;;;;4934625;28;20382;-85
2023/09/20 00:07:48;;;;;;;;;;;16.80;99.90;;;;;;4941395;29;19980;-83
2023/09/20 00:10:15;;;;;;;;;;;16.90;99.90;;;;;;4930807;29;19973;-85
2023/09/20 00:12:40;;;;;;;;;;;16.90;99.90;;;;;;4933057;29;19935;-83
2023/09/20 00:15:07;;;;;;;;;;;16.90;99.90;;;;;;4933745;28;19931;-85
2023/09/20 00:17:34;;;;;;;;;;;16.90;99.90;;;;;;4934479;28;19969;-86
2023/09/20 00:20:02;;;;;;;;;;;16.90;99.90;;;;;;4927717;29;19931;-86
2023/09/20 00:22:28;;;;;;;;;;;16.90;99.90;;;;;;4926985;29;20421;-82
2023/09/20 00:24:55;;;;;;;;;;;16.90;99.90;;;;;;4931877;29;19927;-87
2023/09/20 00:27:20;;;;;;;;;;;16.90;99.90;;;;;;4934357;29;19977;-85
2023/09/20 00:29:46;;;;;;;;;;;16.90;99.90;;;;;;4933839;28;19966;-86
2023/09/20 00:32:12;;;;;;;;;;;16.90;99.90;;;;;;4934771;29;19927;-84
2023/09/20 00:34:37;;;;;;;;;;;16.90;99.90;;;;;;4934023;29;19927;-84
2023/09/20 00:37:03;;;;;;;;;;;16.90;99.90;;;;;;4933250;29;20519;-83
2023/09/20 00:39:30;;;;;;;;;;;16.90;99.90;;;;;;4934032;29;19950;-85
2023/09/20 00:41:57;;;;;;;;;;;16.90;99.90;;;;;;4927096;29;19927;-84
2023/09/20 00:44:25;;;;;;;;;;;17.00;99.90;;;;;;4933067;28;19930;-85
2023/09/20 00:46:51;;;;;;;;;;;17.00;99.90;;;;;;4932958;29;20374;-86
2023/09/20 00:49:17;;;;;;;;;;;17.00;99.90;;;;;;4932903;28;19931;-86
2023/09/20 00:51:45;;;;;;;;;;;17.00;99.90;;;;;;4932151;29;19977;-85
2023/09/20 00:54:11;;;;;;;;;;;17.00;99.90;;;;;;4933827;28;19980;-85
2023/09/20 00:56:37;;;;;;;;;;;17.00;99.90;;;;;;4933767;29;20057;-86
2023/09/20 00:59:06;;;;;;;;;;;17.00;99.90;;;;;;4917946;28;19971;-84
2023/09/20 01:01:33;;;;;;;;;;;17.00;99.90;;;;;;4933347;29;20305;-85
2023/09/20 01:03:59;;;;;;;;;;;17.00;99.90;;;;;;4933570;29;20065;-83
2023/09/20 01:06:27;;;;;;;;;;;17.10;99.90;;;;;;4932022;29;20013;-86
2023/09/20 01:08:54;;;;;;;;;;;17.00;99.90;;;;;;4931597;29;19938;-84
2023/09/20 01:11:20;;;;;;;;;;;17.00;99.90;;;;;;4933927;28;19927;-85
2023/09/20 01:13:46;;;;;;;;;;;17.00;99.90;;;;;;4930667;29;19976;-85
2023/09/20 01:16:14;;;;;;;;;;;17.10;99.90;;;;;;4933821;29;19933;-87
2023/09/20 01:18:40;;;;;;;;;;;17.10;99.90;;;;;;4933856;29;19930;-86
2023/09/20 01:21:05;;;;;;;;;;;17.10;99.90;;;;;;4932056;29;19942;-83
2023/09/20 01:23:32;;;;;;;;;;;17.10;99.90;;;;;;4933279;29;19970;-85
2023/09/20 01:25:59;;;;;;;;;;;17.10;99.90;;;;;;4931493;29;19927;-86
2023/09/20 01:28:28;;;;;;;;;;;17.10;99.90;;;;;;4931586;29;20378;-86
2023/09/20 01:30:53;;;;;;;;;;;17.10;99.90;;;;;;4930592;29;19933;-87
2023/09/20 01:33:19;;;;;;;;;;;17.10;99.90;;;;;;4933989;29;19927;-85
2023/09/20 01:35:47;;;;;;;;;;;17.10;99.90;;;;;;4933601;29;20353;-84
2023/09/20 01:38:13;;;;;;;;;;;17.10;99.90;;;;;;4934152;29;19927;-84
2023/09/20 01:40:39;;;;;;;;;;;17.10;99.90;;;;;;4931730;29;20018;-84
2023/09/20 01:43:08;;;;;;;;;;;17.10;99.90;;;;;;4930792;29;19931;-85
2023/09/20 01:45:35;;;;;;;;;;;17.20;99.90;;;;;;4932677;29;19927;-87
2023/09/20 01:48:01;;;;;;;;;;;17.20;99.90;;;;;;4920146;29;19931;-87
2023/09/20 01:50:27;;;;;;;;;;;17.20;99.90;;;;;;4932995;28;19973;-84
2023/09/20 01:52:53;;;;;;;;;;;17.10;99.90;;;;;;4931733;29;19931;-84
2023/09/20 01:55:23;;;;;;;;;;;17.10;99.90;;;;;;4931359;29;19954;-85
2023/09/20 01:57:50;;;;;;;;;;;17.10;99.90;;;;;;4933103;29;19931;-86
2023/09/20 02:00:16;;;;;;;;;;;17.10;99.90;;;;;;4922246;29;19934;-83
2023/09/20 02:02:43;;;;;;;;;;;17.20;99.90;;;;;;4929710;28;20002;-85
2023/09/20 02:05:10;;;;;;;;;;;17.20;99.90;;;;;;4932982;29;19931;-87
2023/09/20 02:07:35;;;;;;;;;;;17.20;99.90;;;;;;4932909;29;20026;-85
2023/09/20 02:10:02;;;;;;;;;;;17.20;99.90;;;;;;4916050;29;20029;-87
2023/09/20 02:12:29;;;;;;;;;;;17.20;99.90;;;;;;4930958;29;19978;-85
2023/09/20 02:14:55;;;;;;;;;;;17.20;99.90;;;;;;4931655;28;19973;-86
2023/09/20 02:17:21;;;;;;;;;;;17.20;99.90;;;;;;4930582;28;20041;-85
2023/09/20 02:19:46;;;;;;;;;;;17.20;99.90;;;;;;4929562;28;20013;-86
2023/09/20 02:22:12;;;;;;;;;;;17.20;99.90;;;;;;4912721;29;19978;-83
2023/09/20 02:24:38;;;;;;;;;;;17.20;99.90;;;;;;4930520;28;19977;-85
2023/09/20 02:27:08;;;;;;;;;;;17.20;99.90;;;;;;4929277;28;20370;-86
2023/09/20 02:29:34;;;;;;;;;;;17.20;99.90;;;;;;4928670;28;20281;-86
2023/09/20 02:32:00;;;;;;;;;;;17.20;99.90;;;;;;4931495;29;19935;-85
2023/09/20 02:34:26;;;;;;;;;;;17.20;99.90;;;;;;4927738;29;19931;-84
2023/09/20 02:36:51;;;;;;;;;;;17.20;99.90;;;;;;4932426;29;19927;-86
2023/09/20 02:39:18;;;;;;;;;;;17.20;99.90;;;;;;4919655;29;19927;-85
2023/09/20 02:41:44;;;;;;;;;;;17.20;99.90;;;;;;4947155;28;19927;-84
2023/09/20 02:44:09;;;;;;;;;;;17.20;99.90;;;;;;4930885;29;19946;-85
2023/09/20 02:46:35;;;;;;;;;;;17.20;99.90;;;;;;4931861;29;19980;-84
2023/09/20 02:49:00;;;;;;;;;;;17.20;99.90;;;;;;4929892;29;19931;-86
2023/09/20 02:51:26;;;;;;;;;;;17.20;99.90;;;;;;4936817;28;19934;-87
2023/09/20 02:53:51;;;;;;;;;;;17.20;99.90;;;;;;4929565;28;20354;-85
2023/09/20 02:56:18;;;;;;;;;;;17.20;99.90;;;;;;4931444;29;20411;-83
2023/09/20 02:58:48;;;;;;;;;;;17.20;99.90;;;;;;4912470;29;19927;-87
2023/09/20 03:01:17;;;;;;;;;;;17.20;99.90;;;;;;4929576;29;19931;-85
2023/09/20 03:03:43;;;;;;;;;;;17.20;99.90;;;;;;4929148;29;19927;-86
2023/09/20 03:06:09;;;;;;;;;;;17.20;99.90;;;;;;4928036;28;19931;-86
2023/09/20 03:08:35;;;;;;;;;;;17.20;99.90;;;;;;4929188;29;19933;-86
2023/09/20 03:11:01;;;;;;;;;;;17.20;99.90;;;;;;4930742;28;19927;-86
2023/09/20 03:13:26;;;;;;;;;;;17.20;99.90;;;;;;4929903;29;19933;-84
2023/09/20 03:15:54;;;;;;;;;;;17.20;99.90;;;;;;4929987;28;19973;-86
2023/09/20 03:18:22;;;;;;;;;;;17.10;99.90;;;;;;4931535;29;19930;-84
2023/09/20 03:20:49;;;;;;;;;;;17.20;99.90;;;;;;4930366;29;19930;-84
2023/09/20 03:23:14;;;;;;;;;;;17.10;99.90;;;;;;4929905;29;19931;-87
2023/09/20 03:25:40;;;;;;;;;;;17.10;99.90;;;;;;4930327;29;19937;-86
2023/09/20 03:28:12;;;;;;;;;;;17.10;99.90;;;;;;4930672;28;19927;-85
2023/09/20 03:30:39;;;;;;;;;;;17.00;99.90;;;;;;4926563;29;19970;-86
2023/09/20 03:33:05;;;;;;;;;;;17.00;99.90;;;;;;4930652;29;20613;-86
2023/09/20 03:35:31;;;;;;;;;;;16.90;99.90;;;;;;4925868;28;19926;-85
2023/09/20 03:37:56;;;;;;;;;;;16.90;99.90;;;;;;4926647;29;19931;-83
2023/09/20 03:40:22;;;;;;;;;;;16.80;99.90;;;;;;4929589;29;19927;-86
2023/09/20 03:42:49;;;;;;;;;;;16.80;99.90;;;;;;4930537;29;19970;-86
2023/09/20 03:45:18;;;;;;;;;;;16.80;99.90;;;;;;4929248;29;19930;-85
2023/09/20 03:47:53;;;;;;;;;;;16.70;99.90;;;;;;4928318;28;19931;-83
2023/09/20 03:50:19;;;;;;;;;;;16.70;99.90;;;;;;4929668;28;20441;-86
2023/09/20 03:52:45;;;;;;;;;;;16.70;99.90;;;;;;4926648;28;20333;-85
2023/09/20 03:55:11;;;;;;;;;;;16.60;99.90;;;;;;4923475;29;19962;-84
2023/09/20 03:57:39;;;;;;;;;;;16.60;99.90;;;;;;4929670;28;19977;-84
2023/09/20 04:00:07;;;;;;;;;;;16.50;99.90;;;;;;4930358;29;19981;-85
2023/09/20 04:02:33;;;;;;;;;;;16.50;99.90;;;;;;4931383;28;20289;-83
2023/09/20 04:05:06;;;;;;;;;;;16.40;99.90;;;;;;4932112;29;20337;-87
2023/09/20 04:07:32;;;;;;;;;;;16.40;99.90;;;;;;4912935;29;19931;-84
2023/09/20 04:09:57;;;;;;;;;;;16.40;99.90;;;;;;4931652;29;19950;-81
2023/09/20 04:12:23;;;;;;;;;;;16.30;99.90;;;;;;4931595;29;19931;-86
2023/09/20 04:14:51;;;;;;;;;;;16.30;99.90;;;;;;4929292;29;19985;-84
2023/09/20 04:17:17;;;;;;;;;;;16.20;99.90;;;;;;4927836;29;19926;-84
2023/09/20 04:19:43;;;;;;;;;;;16.20;99.90;;;;;;4927272;28;19978;-83
2023/09/20 04:22:10;;;;;;;;;;;16.10;99.90;;;;;;4928255;29;19931;-82
2023/09/20 04:24:35;;;;;;;;;;;16.10;99.90;;;;;;4929907;28;20013;-84
2023/09/20 04:27:02;;;;;;;;;;;16.10;99.90;;;;;;4929172;28;20014;-83
2023/09/20 04:29:29;;;;;;;;;;;16.00;99.90;;;;;;4930390;29;19974;-84
2023/09/20 04:31:55;;;;;;;;;;;16.00;99.90;;;;;;4930803;28;19927;-86
2023/09/20 04:34:21;;;;;;;;;;;16.00;99.90;;;;;;4929899;29;19927;-83
2023/09/20 04:36:47;;;;;;;;;;;15.90;99.90;;;;;;4931737;28;19927;-86
2023/09/20 04:39:14;;;;;;;;;;;15.90;99.90;;;;;;4929554;29;19982;-84
2023/09/20 04:41:39;;;;;;;;;;;15.90;99.90;;;;;;4931956;29;20019;-86
2023/09/20 04:44:05;;;;;;;;;;;15.80;99.90;;;;;;4919955;29;20025;-84
2023/09/20 04:46:35;;;;;;;;;;;15.80;99.90;;;;;;4922088;29;20369;-86
2023/09/20 04:49:05;;;;;;;;;;;15.80;99.90;;;;;;4929222;29;19927;-83
2023/09/20 04:51:30;;;;;;;;;;;15.70;99.90;;;;;;4930666;29;19938;-83
2023/09/20 04:53:56;;;;;;;;;;;15.70;99.90;;;;;;4930472;29;20378;-86
2023/09/20 04:56:22;;;;;;;;;;;15.70;99.90;;;;;;4926643;29;19931;-83
2023/09/20 04:58:48;;;;;;;;;;;15.70;99.90;;;;;;4928520;29;19934;-84
2023/09/20 05:01:13;;;;;;;;;;;15.70;99.90;;;;;;4930957;29;19927;-83
2023/09/20 05:03:39;;;;;;;;;;;15.60;99.90;;;;;;4933332;28;19927;-86
2023/09/20 05:06:05;;;;;;;;;;;15.60;99.90;;;;;;4932580;28;19937;-85
2023/09/20 05:08:31;;;;;;;;;;;15.60;99.90;;;;;;4933326;29;19931;-84
2023/09/20 05:10:57;;;;;;;;;;;15.60;99.90;;;;;;4928109;29;19934;-87
2023/09/20 05:13:22;;;;;;;;;;;15.60;99.90;;;;;;4916569;29;19952;-83
2023/09/20 05:15:50;;;;;;;;;;;15.70;99.90;;;;;;4934933;29;20005;-84
2023/09/20 05:18:16;;;;;;;;;;;15.60;99.90;;;;;;4933155;28;20381;-83
2023/09/20 05:20:42;;;;;;;;;;;15.60;99.90;;;;;;4932994;29;20389;-84
2023/09/20 05:23:08;;;;;;;;;;;15.60;99.90;;;;;;4933081;29;19973;-84
2023/09/20 05:25:34;;;;;;;;;;;15.50;99.90;;;;;;4928412;29;19938;-83
2023/09/20 05:28:01;;;;;;;;;;;15.50;99.90;;;;;;4934577;29;19931;-83
2023/09/20 05:30:26;;;;;;;;;;;15.50;99.90;;;;;;4932281;29;19997;-84
2023/09/20 05:32:53;;;;;;;;;;;15.50;99.90;;;;;;4933286;29;19962;-84
2023/09/20 05:35:19;;;;;;;;;;;15.50;99.90;;;;;;4931111;28;19930;-86
2023/09/20 05:37:44;;;;;;;;;;;15.50;99.90;;;;;;4936270;28;19934;-82
2023/09/20 05:40:17;;;;;;;;;;;15.50;99.90;;;;;;4928672;29;19931;-87
2023/09/20 05:42:46;;;;;;;;;;;15.50;99.90;;;;;;4932235;29;19927;-84
2023/09/20 05:45:12;;;;;;;;;;;15.50;99.90;;;;;;4932505;29;19990;-86
2023/09/20 05:47:42;;;;;;;;;;;15.50;99.90;;;;;;4944782;28;20366;-85
2023/09/20 05:50:10;;;;;;;;;;;15.50;99.90;;;;;;4929730;29;19935;-85
2023/09/20 05:52:37;;;;;;;;;;;15.50;99.90;;;;;;4933643;28;19927;-85
2023/09/20 05:55:03;;;;;;;;;;;15.50;99.90;;;;;;4931800;29;20382;-84
2023/09/20 05:57:28;;;;;;;;;;;15.50;99.90;;;;;;4915426;29;19931;-87
2023/09/20 05:59:56;;;;;;;;;;;15.60;99.90;;;;;;4933269;28;19926;-85
2023/09/20 06:02:22;;;;;;;;;;;15.70;99.90;;;;;;4914955;28;20262;-86
2023/09/20 06:04:47;;;;;;;;;;;15.70;99.90;;;;;;4932041;29;19985;-84
2023/09/20 06:07:14;;;;;;;;;;;15.80;99.90;;;;;;4931662;28;19927;-85
2023/09/20 06:09:39;;;;;;;;;;;15.80;99.90;;;;;;4928703;29;19927;-85
2023/09/20 06:12:05;;;;;;;;;;;15.90;99.90;;;;;;4915705;29;20332;-83
2023/09/20 06:14:31;;;;;;;;;;;15.90;99.90;;;;;;4932361;29;19934;-86
2023/09/20 06:17:00;;;;;;;;;;;16.00;99.90;;;;;;4930808;28;19934;-85
2023/09/20 06:19:28;;;;;;;;;;;16.00;99.90;;;;;;4930399;29;19934;-87
2023/09/20 06:21:54;;;;;;;;;;;16.10;99.90;;;;;;4933071;29;19930;-85
2023/09/20 06:24:19;;;;;;;;;;;16.20;99.90;;;;;;4930256;29;19938;-85
2023/09/20 06:26:45;;;;;;;;;;;16.20;99.90;;;;;;4931423;28;19927;-86
2023/09/20 06:29:11;;;;;;;;;;;16.30;99.90;;;;;;4929117;28;20049;-88
2023/09/20 06:31:40;;;;;;;;;;;16.40;99.90;;;;;;4924122;29;19934;-87
2023/09/20 06:34:06;;;;;;;;;;;16.40;99.90;;;;;;4925460;28;19938;-85
2023/09/20 06:36:31;;;;;;;;;;;16.50;99.90;;;;;;4933377;29;19931;-87
2023/09/20 06:38:58;;;;;;;;;;;16.60;99.90;;;;;;4913769;28;20285;-86
2023/09/20 06:41:23;;;;;;;;;;;16.60;99.90;;;;;;4930109;28;20037;-86
2023/09/20 06:43:49;;;;;;;;;;;16.70;99.90;;;;;;4930617;29;20017;-85
2023/09/20 06:46:14;;;;;;;;;;;16.80;99.90;;;;;;4931059;28;19927;-87
2023/09/20 06:48:40;;;;;;;;;;;16.90;99.90;;;;;;4936806;28;20070;-86
2023/09/20 06:51:06;;;;;;;;;;;16.90;99.90;;;;;;4930291;29;20020;-86
2023/09/20 06:53:31;;;;;;;;;;;17.00;99.90;;;;;;4931862;28;19927;-84
2023/09/20 06:55:59;;;;;;;;;;;17.00;99.90;;;;;;4935949;28;19931;-85
2023/09/20 06:58:25;;;;;;;;;;;17.10;99.90;;;;;;4939637;28;20049;-85
2023/09/20 07:00:51;;;;;;;;;;;17.20;99.90;;;;;;4930103;29;20060;-85
2023/09/20 07:03:18;;;;;;;;;;;17.20;99.90;;;;;;4941732;28;19927;-87
2023/09/20 07:05:44;;;;;;;;;;;17.30;99.90;;;;;;4927964;29;19933;-85
2023/09/20 07:08:10;;;;;;;;;;;17.30;99.90;;;;;;4919567;28;20023;-83
2023/09/20 07:10:36;;;;;;;;;;;17.30;99.90;;;;;;4926342;29;19927;-83
2023/09/20 07:13:05;;;;;;;;;;;17.40;99.90;;;;;;4931153;28;19926;-85
2023/09/20 07:15:31;;;;;;;;;;;17.50;99.90;;;;;;4940837;28;20010;-85
2023/09/20 07:18:00;;;;;;;;;;;17.60;99.90;;;;;;4949461;28;20017;-86
2023/09/20 07:20:29;;;;;;;;;;;17.80;99.90;;;;;;4937477;28;19934;-86
2023/09/20 07:22:55;;;;;;;;;;;18.00;99.90;;;;;;4932131;29;19931;-85
2023/09/20 07:25:21;;;;;;;;;;;18.30;99.90;;;;;;4940887;28;19938;-85
2023/09/20 07:27:47;;;;;;;;;;;18.70;99.90;;;;;;4940599;28;19931;-86
2023/09/20 07:30:14;;;;;;;;;;;19.10;99.90;;;;;;4940764;29;20373;-85
2023/09/20 07:32:41;;;;;;;;;;;19.50;99.90;;;;;;4938120;28;20014;-87
2023/09/20 07:35:19;;;;;;;;;;;19.60;99.90;;;;;;4931346;28;20339;-87
2023/09/20 07:37:55;;;;;;;;;;;19.50;99.90;;;;;;4928726;29;20448;-85
2023/09/20 07:40:21;;;;;;;;;;;19.40;99.90;;;;;;4938052;28;19988;-85
2023/09/20 07:42:49;;;;;;;;;;;19.50;99.90;;;;;;4928860;29;19934;-88
2023/09/20 07:45:15;;;;;;;;;;;19.50;99.90;;;;;;4932829;29;19973;-87
2023/09/20 07:47:43;;;;;;;;;;;19.50;99.90;;;;;;4919468;28;20419;-87
2023/09/20 07:50:11;;;;;;;;;;;19.50;99.90;;;;;;4935252;29;19931;-86
2023/09/20 07:52:38;;;;;;;;;;;19.40;99.90;;;;;;4928606;29;19931;-86
2023/09/20 07:55:04;;;;;;;;;;;19.30;99.90;;;;;;4930519;28;19927;-86
2023/09/20 07:57:30;;;;;;;;;;;19.20;99.90;;;;;;4928594;29;20979;-87
2023/09/20 07:59:59;;;;;;;;;;;19.00;99.90;;;;;;4938398;29;19966;-90
2023/09/20 08:02:27;;;;;;;;;;;18.90;99.90;;;;;;4926326;28;19934;-88
2023/09/20 08:04:54;;;;;;;;;;;18.80;99.90;;;;;;4928983;29;19934;-87
2023/09/20 08:07:19;;;;;;;;;;;18.80;99.90;;;;;;4930660;28;19984;-90
2023/09/20 08:09:45;;;;;;;;;;;18.70;99.90;;;;;;4912442;29;19939;-86
2023/09/20 08:12:11;;;;;;;;;;;18.70;99.90;;;;;;4928524;29;19962;-85
2023/09/20 08:14:38;;;;;;;;;;;18.70;99.90;;;;;;4932253;29;20013;-86
2023/09/20 08:19:47;;;;;;;;;;;18.60;99.90;;;;;;4931326;29;19926;-86
2023/09/20 08:22:15;;;;;;;;;;;18.60;99.90;;;;;;4930473;29;19927;-87
2023/09/20 09:00:30;;;;;;;;;;;18.70;99.90;;;;;;4938556;28;19958;-86
2023/09/20 09:02:57;;;;;;;;;;;18.70;99.90;;;;;;4943474;29;19982;-86
2023/09/20 09:05:24;;;;;;;;;;;18.70;99.90;;;;;;4956425;28;19930;-86
2023/09/20 09:07:50;;;;;;;;;;;18.80;99.90;;;;;;4953792;29;19930;-88
2023/09/20 09:10:16;;;;;;;;;;;18.80;99.90;;;;;;4951776;29;19941;-87
2023/09/20 09:12:42;;;;;;;;;;;18.80;99.90;;;;;;4952174;28;19954;-86
2023/09/20 09:15:08;;;;;;;;;;;18.80;99.90;;;;;;4952288;29;19934;-86
2023/09/20 09:17:44;;;;;;;;;;;18.80;99.90;;;;;;4956141;29;19937;-86
2023/09/20 09:20:11;;;;;;;;;;;18.80;99.90;;;;;;4937254;29;20017;-86
2023/09/20 09:22:40;;;;;;;;;;;18.80;99.90;;;;;;4955266;28;19966;-85
2023/09/20 09:25:12;;;;;;;;;;;18.80;99.90;;;;;;4950247;28;19937;-87
2023/09/20 09:27:39;;;;;;;;;;;18.90;99.90;;;;;;4953142;29;19927;-87
2023/09/20 09:30:09;;;;;;;;;;;18.90;99.90;;;;;;4939710;28;19930;-87
2023/09/20 09:32:35;;;;;;;;;;;18.90;99.90;;;;;;4932207;28;19931;-85
2023/09/20 09:35:03;;;;;;;;;;;19.00;99.90;;;;;;4933973;29;20271;-85
2023/09/20 09:37:30;;;;;;;;;;;19.10;99.90;;;;;;4934071;29;19931;-87
2023/09/20 09:40:00;;;;;;;;;;;19.10;99.90;;;;;;4929577;29;19935;-87
2023/09/20 09:42:28;;;;;;;;;;;19.20;99.90;;;;;;4928229;28;19927;-85
2023/09/20 09:44:55;;;;;;;;;;;19.20;99.90;;;;;;4928829;28;19934;-85
2023/09/20 09:47:21;;;;;;;;;;;19.20;99.90;;;;;;4929391;28;19958;-84
2023/09/20 09:49:50;;;;;;;;;;;19.30;99.90;;;;;;4931301;29;19942;-85
2023/09/20 09:52:26;;;;;;;;;;;19.30;99.90;;;;;;4931825;29;19933;-86
2023/09/20 09:54:55;;;;;;;;;;;19.30;99.90;;;;;;4932444;29;19980;-86
2023/09/20 09:57:21;;;;;;;;;;;19.40;99.90;;;;;;4932871;28;21447;-84
2023/09/20 09:59:47;;;;;;;;;;;19.40;99.90;;;;;;4932946;29;20785;-85
2023/09/20 10:02:20;;;;;;;;;;;19.30;99.90;;;;;;4932867;29;19930;-87
2023/09/20 10:04:59;;;;;;;;;;;19.30;99.90;;;;;;4930565;28;19927;-85
2023/09/20 10:07:29;;;;;;;;;;;19.30;99.90;;;;;;4932707;28;19927;-86
2023/09/20 10:10:02;;;;;;;;;;;19.40;99.90;;;;;;4931711;29;20400;-86
2023/09/20 10:12:30;;;;;;;;;;;19.50;99.90;;;;;;4926959;28;19931;-87
2023/09/20 10:14:57;;;;;;;;;;;19.40;99.90;;;;;;4919474;28;19927;-87
2023/09/20 10:17:25;;;;;;;;;;;19.50;99.90;;;;;;4928433;29;19981;-85
2023/09/20 10:19:52;;;;;;;;;;;19.50;99.90;;;;;;4931380;29;20432;-86
2023/09/20 10:22:22;;;;;;;;;;;19.60;99.90;;;;;;4930523;29;20525;-83
2023/09/20 10:25:01;;;;;;;;;;;19.60;99.90;;;;;;4930634;28;19927;-85
2023/09/20 10:27:28;;;;;;;;;;;19.50;99.90;;;;;;4925479;29;20953;-86
2023/09/20 10:30:00;;;;;;;;;;;19.60;99.90;;;;;;4932569;28;19931;-86
2023/09/20 10:32:45;;;;;;;;;;;19.50;99.90;;;;;;4929796;28;20557;-87
2023/09/20 10:35:27;;;;;;;;;;;19.50;99.90;;;;;;4931055;28;20526;-84
2023/09/20 10:38:01;;;;;;;;;;;19.50;99.90;;;;;;4933637;29;19927;-86
2023/09/20 10:40:45;;;;;;;;;;;19.50;99.90;;;;;;4928373;29;20534;-87
2023/09/20 10:43:14;;;;;;;;;;;19.60;99.90;;;;;;4923884;29;19931;-84
2023/09/20 10:45:40;;;;;;;;;;;19.60;99.90;;;;;;4930627;29;19927;-87
2023/09/20 10:48:14;;;;;;;;;;;19.60;99.90;;;;;;4932234;28;19926;-87
2023/09/20 10:50:47;;;;;;;;;;;19.60;99.90;;;;;;4928724;29;19926;-86
2023/09/20 10:53:12;;;;;;;;;;;19.70;99.90;;;;;;4938939;29;19931;-85
2023/09/20 10:55:38;;;;;;;;;;;19.70;99.90;;;;;;4935912;28;19937;-85
2023/09/20 10:58:04;;;;;;;;;;;19.70;99.90;;;;;;4931038;29;20004;-87
2023/09/20 11:00:34;;;;;;;;;;;19.80;99.90;;;;;;4931942;28;20456;-84
2023/09/20 11:03:03;;;;;;;;;;;19.70;99.90;;;;;;4930216;28;20068;-87
2023/09/20 11:05:29;;;;;;;;;;;19.70;99.90;;;;;;4931131;28;20342;-86
2023/09/20 11:07:55;;;;;;;;;;;19.80;99.90;;;;;;4929834;29;19933;-84
2023/09/20 11:10:21;;;;;;;;;;;19.90;99.90;;;;;;4931816;28;19934;-86
2023/09/20 11:12:47;;;;;;;;;;;20.00;99.90;;;;;;4931524;29;19927;-86
2023/09/20 11:15:15;;;;;;;;;;;20.00;99.90;;;;;;4930442;29;19927;-86
2023/09/20 11:17:41;;;;;;;;;;;20.10;99.90;;;;;;4931670;29;20389;-84
2023/09/20 11:20:07;;;;;;;;;;;20.10;99.90;;;;;;4930994;29;19930;-89
2023/09/20 11:22:33;;;;;;;;;;;20.20;99.90;;;;;;4929108;29;19935;-87
2023/09/20 11:25:01;;;;;;;;;;;20.20;99.90;;;;;;4930501;29;20305;-87
2023/09/20 11:27:27;;;;;;;;;;;20.20;99.90;;;;;;4928479;29;19969;-88
2023/09/20 11:29:53;;;;;;;;;;;20.20;99.90;;;;;;4928187;28;20298;-89
2023/09/20 11:32:22;;;;;;;;;;;20.30;99.90;;;;;;4915927;28;19927;-88
2023/09/20 11:34:49;;;;;;;;;;;20.30;99.90;;;;;;4932401;28;19931;-89
2023/09/20 11:37:18;;;;;;;;;;;20.50;99.90;;;;;;4914344;29;19954;-84
2023/09/20 11:39:48;;;;;;;;;;;20.70;99.90;;;;;;4931044;29;19938;-86
2023/09/20 11:42:25;;;;;;;;;;;20.80;99.90;;;;;;4928342;29;20100;-86
2023/09/20 11:44:57;;;;;;;;;;;21.00;99.90;;;;;;4929795;29;20431;-85
2023/09/20 11:47:23;;;;;;;;;;;21.20;99.90;;;;;;4930722;29;20665;-89
2023/09/20 11:49:50;;;;;;;;;;;21.30;99.90;;;;;;4930077;28;19938;-89
2023/09/20 11:52:20;;;;;;;;;;;21.40;99.90;;;;;;5011270;28;20417;-84
2023/09/20 11:54:47;;;;;;;;;;;21.60;99.90;;;;;;4923984;29;19948;-85
2023/09/20 11:57:16;;;;;;;;;;;21.90;99.90;;;;;;4926008;28;19934;-87
2023/09/20 11:59:43;;;;;;;;;;;21.90;99.90;;;;;;4934222;28;19962;-85
2023/09/20 12:02:09;;;;;;;;;;;22.00;99.90;;;;;;4928187;29;19935;-85
2023/09/20 12:04:35;;;;;;;;;;;22.00;99.90;;;;;;4937543;28;20023;-86
2023/09/20 12:07:01;;;;;;;;;;;22.00;99.90;;;;;;4934926;28;19935;-88
2023/09/20 12:09:27;;;;;;;;;;;22.00;99.90;;;;;;4933058;29;20266;-86
2023/09/20 12:11:53;;;;;;;;;;;21.90;99.90;;;;;;4933417;29;19926;-85
2023/09/20 12:14:18;;;;;;;;;;;21.90;99.90;;;;;;4936369;28;19926;-86
2023/09/20 12:16:47;;;;;;;;;;;21.90;99.90;;;;;;4934257;29;19927;-85
2023/09/20 12:19:16;;;;;;;;;;;22.00;99.90;;;;;;4933182;29;19980;-86
2023/09/20 12:21:44;;;;;;;;;;;22.10;99.90;;;;;;4927545;29;19969;-88
2023/09/20 12:24:11;;;;;;;;;;;22.20;99.90;;;;;;4932224;29;20436;-85
2023/09/20 12:26:37;;;;;;;;;;;22.30;99.90;;;;;;4934701;29;20397;-87
2023/09/20 12:29:03;;;;;;;;;;;22.40;99.90;;;;;;4934439;29;19927;-87
2023/09/20 12:31:28;;;;;;;;;;;22.40;99.90;;;;;;4931999;29;19927;-86
2023/09/20 12:33:54;;;;;;;;;;;22.60;99.90;;;;;;4933657;28;19926;-85
2023/09/20 12:36:23;;;;;;;;;;;22.60;99.90;;;;;;4931444;29;19927;-83
2023/09/20 12:38:50;;;;;;;;;;;22.50;99.90;;;;;;4934730;29;19934;-87
2023/09/20 12:41:15;;;;;;;;;;;22.40;99.90;;;;;;4931467;29;20041;-87
2023/09/20 12:43:41;;;;;;;;;;;22.30;99.90;;;;;;4932980;29;20013;-87
2023/09/20 12:46:07;;;;;;;;;;;22.30;99.90;;;;;;4934214;29;19931;-86
2023/09/20 12:48:33;;;;;;;;;;;22.00;99.90;;;;;;4938824;28;19926;-84
2023/09/20 12:50:59;;;;;;;;;;;21.90;99.90;;;;;;4932451;29;19937;-85
2023/09/20 12:53:24;;;;;;;;;;;21.80;99.90;;;;;;4933837;28;20017;-85
2023/09/20 12:55:50;;;;;;;;;;;21.70;99.90;;;;;;4933431;29;19931;-85
2023/09/20 12:58:16;;;;;;;;;;;21.60;99.90;;;;;;4933676;28;19927;-83
2023/09/20 13:00:42;;;;;;;;;;;21.70;99.90;;;;;;4930165;29;20649;-87
2023/09/20 13:03:08;;;;;;;;;;;21.80;99.90;;;;;;4934352;29;19930;-86
2023/09/20 13:05:35;;;;;;;;;;;21.90;99.90;;;;;;4932727;29;20009;-85
2023/09/20 13:08:00;;;;;;;;;;;22.00;99.90;;;;;;4928688;29;19927;-87
2023/09/20 13:10:26;;;;;;;;;;;22.00;99.90;;;;;;4931490;28;19935;-84
2023/09/20 13:12:52;;;;;;;;;;;22.00;99.90;;;;;;4932886;29;19930;-83
2023/09/20 13:15:18;;;;;;;;;;;22.00;99.90;;;;;;4934068;29;19934;-87
2023/09/20 13:17:44;;;;;;;;;;;22.10;99.90;;;;;;4931383;29;19978;-86
2023/09/20 13:20:14;;;;;;;;;;;22.10;99.90;;;;;;4927412;29;19955;-84
2023/09/20 13:22:42;;;;;;;;;;;22.10;99.90;;;;;;4927458;28;19931;-85
2023/09/20 13:25:09;;;;;;;;;;;22.20;99.90;;;;;;4929890;29;19927;-84
2023/09/20 13:27:35;;;;;;;;;;;22.20;99.90;;;;;;4931926;29;19933;-84
2023/09/20 13:30:01;;;;;;;;;;;22.20;99.90;;;;;;4931537;28;20065;-85
2023/09/20 13:32:26;;;;;;;;;;;22.20;99.90;;;;;;4947006;28;19930;-85
2023/09/20 13:34:53;;;;;;;;;;;22.20;99.90;;;;;;4928177;29;19972;-83
2023/09/20 13:37:19;;;;;;;;;;;22.20;99.90;;;;;;4939354;28;19973;-85
2023/09/20 13:39:44;;;;;;;;;;;22.20;99.90;;;;;;4932553;29;19966;-86
2023/09/20 13:42:10;;;;;;;;;;;22.10;99.90;;;;;;4930381;29;20496;-85
2023/09/20 13:44:36;;;;;;;;;;;22.10;99.90;;;;;;4931128;29;20294;-86
2023/09/20 13:47:06;;;;;;;;;;;22.30;99.90;;;;;;4929078;28;19934;-84
2023/09/20 13:49:36;;;;;;;;;;;22.30;99.90;;;;;;4932141;28;19981;-85
2023/09/20 13:52:05;;;;;;;;;;;22.10;99.90;;;;;;4909841;29;19928;-85
2023/09/20 13:54:31;;;;;;;;;;;22.10;99.90;;;;;;4928510;29;20482;-83
2023/09/20 13:56:56;;;;;;;;;;;22.10;99.90;;;;;;4933040;29;19973;-85
2023/09/20 13:59:24;;;;;;;;;;;22.10;99.90;;;;;;4932469;28;19977;-88
2023/09/20 14:01:50;;;;;;;;;;;22.10;99.90;;;;;;4931147;28;19926;-86
2023/09/20 14:04:16;;;;;;;;;;;22.10;99.90;;;;;;4932784;28;19927;-83
2023/09/20 14:06:43;;;;;;;;;;;22.20;99.90;;;;;;4932479;28;19937;-84
2023/09/20 14:09:12;;;;;;;;;;;22.50;99.90;;;;;;4932376;29;19927;-85
2023/09/20 14:11:39;;;;;;;;;;;22.70;99.90;;;;;;4930568;29;20271;-85
2023/09/20 14:14:05;;;;;;;;;;;22.70;99.90;;;;;;4898362;29;20026;-84
2023/09/20 14:16:30;;;;;;;;;;;22.70;99.90;;;;;;4930837;29;20396;-86
2023/09/20 14:18:56;;;;;;;;;;;22.70;99.90;;;;;;4929752;28;19935;-86
2023/09/20 14:21:21;;;;;;;;;;;22.60;99.90;;;;;;4933146;29;19974;-87
2023/09/20 14:23:47;;;;;;;;;;;22.60;99.90;;;;;;4931904;29;19934;-86
2023/09/20 14:26:13;;;;;;;;;;;22.50;99.90;;;;;;4932478;29;20571;-87
2023/09/20 14:28:42;;;;;;;;;;;22.50;99.90;;;;;;4931237;29;19938;-84
2023/09/20 14:31:17;;;;;;;;;;;22.40;99.90;;;;;;4932234;28;19969;-86
2023/09/20 14:33:42;;;;;;;;;;;22.30;99.90;;;;;;4931670;28;20362;-84
2023/09/20 14:36:11;;;;;;;;;;;22.10;99.90;;;;;;4933095;29;19931;-86
2023/09/20 14:38:37;;;;;;;;;;;22.00;99.90;;;;;;4931761;29;19970;-84
2023/09/20 14:41:03;;;;;;;;;;;22.00;99.90;;;;;;4930422;29;19933;-84
2023/09/20 14:43:31;;;;;;;;;;;21.90;99.90;;;;;;4933610;28;19931;-86
2023/09/20 14:45:57;;;;;;;;;;;21.90;99.90;;;;;;4929192;29;20034;-83
2023/09/20 14:48:22;;;;;;;;;;;21.90;99.90;;;;;;4930218;29;20305;-84
2023/09/20 14:50:48;;;;;;;;;;;21.90;99.90;;;;;;4915046;29;19931;-86
2023/09/20 14:53:18;;;;;;;;;;;21.80;99.90;;;;;;4932576;29;19977;-85